createdAt,value
2022-12-22T00:00:55.261Z,25.3
2022-12-22T00:01:57.284Z,25.3
2022-12-22T00:03:00.308Z,25.3
2022-12-22T00:04:03.002Z,25.3
2022-12-22T00:05:05.410Z,25.3
2022-12-22T00:06:07.275Z,25.3
2022-12-22T00:07:09.089Z,25.3
2022-12-22T00:08:10.704Z,25.2
2022-12-22T00:09:12.331Z,25.2
2022-12-22T00:10:14.035Z,25.1
2022-12-22T00:11:15.957Z,25.1
2022-12-22T00:12:17.612Z,25.1
2022-12-22T00:13:19.298Z,25.1
2022-12-22T00:14:21.154Z,25.1
2022-12-22T00:15:22.813Z,25.1
2022-12-22T00:16:24.701Z,25.1
2022-12-22T00:17:26.638Z,25.1
2022-12-22T00:18:28.281Z,25.1
2022-12-22T00:19:30.107Z,25.1
2022-12-22T00:20:31.883Z,25.1
2022-12-22T00:21:33.807Z,25.1
2022-12-22T00:22:35.677Z,25.1
2022-12-22T00:23:39.509Z,25.1
2022-12-22T00:24:43.742Z,25.2
2022-12-22T00:25:45.510Z,25.2
2022-12-22T00:26:47.280Z,25.2
2022-12-22T00:27:49.004Z,25.2
2022-12-22T00:28:50.723Z,25.2
2022-12-22T00:29:52.505Z,25.2
2022-12-22T00:30:54.149Z,25.3
2022-12-22T00:31:56.193Z,25.2
2022-12-22T00:32:58.038Z,25.2
2022-12-22T00:33:59.694Z,25.2
2022-12-22T00:35:01.340Z,25.2
2022-12-22T00:36:03.198Z,25.2
2022-12-22T00:37:05.028Z,25.3
2022-12-22T00:38:06.640Z,25.2
2022-12-22T00:39:08.614Z,25.2
2022-12-22T00:40:10.378Z,25.2
2022-12-22T00:41:12.269Z,25.2
2022-12-22T00:42:14.232Z,25.2
2022-12-22T00:43:16.142Z,25.3
2022-12-22T00:44:18.167Z,25.3
2022-12-22T00:45:20.037Z,25.3
2022-12-22T00:46:21.945Z,25.3
2022-12-22T00:47:24.552Z,25.3
2022-12-22T00:48:26.420Z,25.2
2022-12-22T00:49:29.321Z,25.3
2022-12-22T00:50:31.186Z,25.3
2022-12-22T00:51:33.337Z,25.3
2022-12-22T00:52:35.260Z,25.2
2022-12-22T00:53:37.079Z,25.1
2022-12-22T00:54:39.009Z,25.1
2022-12-22T00:55:40.770Z,25.1
2022-12-22T00:56:42.545Z,25.1
2022-12-22T00:57:44.384Z,25.1
2022-12-22T00:58:46.247Z,25
2022-12-22T00:59:48.134Z,25
2022-12-22T01:00:50.114Z,25
2022-12-22T01:01:52.122Z,25.1
2022-12-22T01:02:54.748Z,25.1
2022-12-22T01:03:57.237Z,25.1
2022-12-22T01:04:59.078Z,25.1
2022-12-22T01:06:00.978Z,25.1
2022-12-22T01:07:02.791Z,25.1
2022-12-22T01:08:04.633Z,25.1
2022-12-22T01:09:06.590Z,25.1
2022-12-22T01:10:08.470Z,25.1
2022-12-22T01:11:10.280Z,25.1
2022-12-22T01:12:12.177Z,25.1
2022-12-22T01:13:14.079Z,25.1
2022-12-22T01:14:15.939Z,25.2
2022-12-22T01:15:17.838Z,25.2
2022-12-22T01:16:19.859Z,25.1
2022-12-22T01:17:22.112Z,25.1
2022-12-22T01:18:23.731Z,25.2
2022-12-22T01:19:25.604Z,25.2
2022-12-22T01:20:27.451Z,25.2
2022-12-22T01:21:29.294Z,25.2
2022-12-22T01:22:31.187Z,25.2
2022-12-22T01:23:33.116Z,25.2
2022-12-22T01:24:35.003Z,25.2
2022-12-22T01:25:36.821Z,25.2
2022-12-22T01:26:38.636Z,25.2
2022-12-22T01:27:40.661Z,25.2
2022-12-22T01:28:42.566Z,25.2
2022-12-22T01:29:44.552Z,25.2
2022-12-22T01:30:46.604Z,25.2
2022-12-22T01:31:48.630Z,25.2
2022-12-22T01:32:50.374Z,25.2
2022-12-22T01:33:52.209Z,25.2
2022-12-22T01:34:53.898Z,25.2
2022-12-22T01:35:55.841Z,25.3
2022-12-22T01:36:57.655Z,25.2
2022-12-22T01:37:59.406Z,25.2
2022-12-22T01:39:01.354Z,25.1
2022-12-22T01:40:03.207Z,25.1
2022-12-22T01:41:05.120Z,25
2022-12-22T01:42:07.015Z,25
2022-12-22T01:43:08.782Z,25
2022-12-22T01:44:10.616Z,25
2022-12-22T01:45:12.386Z,25
2022-12-22T01:46:14.422Z,25
2022-12-22T01:47:16.360Z,25
2022-12-22T01:48:18.215Z,25
2022-12-22T01:49:20.056Z,25.1
2022-12-22T01:50:21.918Z,25.1
2022-12-22T01:51:23.702Z,25.1
2022-12-22T01:52:25.617Z,25.1
2022-12-22T01:53:27.376Z,25.1
2022-12-22T01:54:29.107Z,25.1
2022-12-22T01:55:30.965Z,25.1
2022-12-22T01:56:32.783Z,25.1
2022-12-22T01:57:34.398Z,25.1
2022-12-22T01:58:36.036Z,25.1
2022-12-22T01:59:37.995Z,25.1
2022-12-22T02:00:40.114Z,25.1
2022-12-22T02:01:42.171Z,25.1
2022-12-22T02:02:44.737Z,25.2
2022-12-22T02:03:47.219Z,25.2
2022-12-22T02:04:49.605Z,25.1
2022-12-22T02:05:51.404Z,25.2
2022-12-22T02:06:59.708Z,25.2
2022-12-22T02:08:02.416Z,25.2
2022-12-22T02:09:04.351Z,25.2
2022-12-22T02:10:06.335Z,25.2
2022-12-22T02:11:08.221Z,25.2
2022-12-22T02:12:10.081Z,25.2
2022-12-22T02:13:11.930Z,25.2
2022-12-22T02:14:13.548Z,25.2
2022-12-22T02:15:18.041Z,25.2
2022-12-22T02:16:19.869Z,25.2
2022-12-22T02:17:22.119Z,25.2
2022-12-22T02:18:24.015Z,25.2
2022-12-22T02:19:25.910Z,25.2
2022-12-22T02:20:27.752Z,25.2
2022-12-22T02:21:29.603Z,25.2
2022-12-22T02:22:31.221Z,25.1
2022-12-22T02:23:33.129Z,25.1
2022-12-22T02:24:34.782Z,25
2022-12-22T02:25:36.426Z,25
2022-12-22T02:26:38.387Z,25
2022-12-22T02:27:40.008Z,25
2022-12-22T02:28:41.824Z,25
2022-12-22T02:29:43.758Z,25
2022-12-22T02:30:45.452Z,25
2022-12-22T02:31:48.126Z,25
2022-12-22T02:32:50.181Z,25
2022-12-22T02:33:51.845Z,25
2022-12-22T02:34:53.539Z,25
2022-12-22T02:35:55.395Z,25
2022-12-22T02:36:57.267Z,25
2022-12-22T02:37:59.296Z,25
2022-12-22T02:39:01.165Z,25
2022-12-22T02:40:03.085Z,25
2022-12-22T02:41:04.856Z,25.1
2022-12-22T02:42:06.711Z,25.1
2022-12-22T02:43:08.443Z,25.1
2022-12-22T02:44:10.300Z,25.1
2022-12-22T02:45:11.984Z,25.1
2022-12-22T02:46:13.747Z,25.1
2022-12-22T02:47:15.797Z,25.1
2022-12-22T02:48:17.739Z,25.1
2022-12-22T02:49:19.662Z,25.1
2022-12-22T02:50:21.539Z,25.1
2022-12-22T02:51:23.340Z,25.1
2022-12-22T02:52:25.201Z,25.1
2022-12-22T02:53:27.051Z,25.2
2022-12-22T02:54:28.803Z,25.2
2022-12-22T02:55:30.647Z,25.2
2022-12-22T02:56:32.314Z,25.2
2022-12-22T02:57:34.146Z,25.2
2022-12-22T02:58:36.001Z,25.2
2022-12-22T02:59:37.836Z,25.2
2022-12-22T03:00:39.743Z,25.2
2022-12-22T03:01:42.291Z,25.2
2022-12-22T03:02:45.204Z,25.2
2022-12-22T03:03:51.005Z,25.2
2022-12-22T03:04:53.424Z,25.2
2022-12-22T03:05:55.057Z,25.2
2022-12-22T03:06:56.995Z,25.2
2022-12-22T03:08:01.826Z,25.2
2022-12-22T03:09:10.366Z,25.3
2022-12-22T03:10:12.226Z,25.2
2022-12-22T03:11:14.067Z,25.2
2022-12-22T03:12:15.922Z,25.2
2022-12-22T03:13:17.809Z,25.3
2022-12-22T03:14:19.439Z,25.3
2022-12-22T03:15:21.297Z,25.3
2022-12-22T03:16:23.239Z,25.3
2022-12-22T03:17:25.470Z,25.2
2022-12-22T03:18:27.318Z,25.1
2022-12-22T03:19:29.585Z,25.1
2022-12-22T03:20:31.248Z,25.1
2022-12-22T03:21:33.077Z,25
2022-12-22T03:22:34.985Z,24.9
2022-12-22T03:23:36.790Z,24.9
2022-12-22T03:24:38.629Z,24.9
2022-12-22T03:25:40.478Z,24.9
2022-12-22T03:26:42.383Z,24.9
2022-12-22T03:27:44.283Z,24.9
2022-12-22T03:28:46.134Z,24.9
2022-12-22T03:29:47.981Z,25
2022-12-22T03:30:49.902Z,24.9
2022-12-22T03:31:51.664Z,25
2022-12-22T03:32:53.839Z,25
2022-12-22T03:33:55.690Z,25
2022-12-22T03:34:57.617Z,25
2022-12-22T03:35:59.492Z,25
2022-12-22T03:37:01.377Z,25
2022-12-22T03:38:03.273Z,25
2022-12-22T03:39:05.556Z,25
2022-12-22T03:40:10.141Z,25
2022-12-22T03:41:11.968Z,25
2022-12-22T03:42:13.882Z,25.1
2022-12-22T03:43:15.659Z,25.1
2022-12-22T03:44:17.556Z,25.1
2022-12-22T03:45:19.486Z,25.1
2022-12-22T03:46:21.409Z,25.1
2022-12-22T03:47:23.552Z,25.1
2022-12-22T03:48:25.205Z,25.1
2022-12-22T03:49:27.085Z,25.1
2022-12-22T03:50:29.039Z,25.1
2022-12-22T03:51:30.859Z,25.1
2022-12-22T03:52:32.786Z,25.1
2022-12-22T03:53:34.627Z,25.1
2022-12-22T03:54:36.514Z,25.1
2022-12-22T03:55:38.458Z,25.1
2022-12-22T03:56:40.088Z,25.2
2022-12-22T03:57:41.753Z,25.2
2022-12-22T03:58:43.745Z,25.2
2022-12-22T03:59:45.631Z,25.2
2022-12-22T04:00:47.518Z,25.2
2022-12-22T04:01:49.687Z,25.1
2022-12-22T04:02:52.578Z,25.1
2022-12-22T04:03:55.271Z,25.2
2022-12-22T04:04:57.099Z,25.1
2022-12-22T04:05:59.020Z,25.1
2022-12-22T04:07:00.887Z,25.2
2022-12-22T04:08:02.810Z,25.2
2022-12-22T04:09:04.640Z,25.2
2022-12-22T04:10:06.483Z,25.2
2022-12-22T04:11:08.326Z,25.2
2022-12-22T04:12:10.063Z,25.1
2022-12-22T04:13:11.723Z,25.2
2022-12-22T04:14:13.461Z,25.2
2022-12-22T04:15:15.145Z,25.2
2022-12-22T04:16:17.107Z,25.2
2022-12-22T04:17:19.276Z,25.2
2022-12-22T04:18:21.179Z,25.2
2022-12-22T04:19:23.025Z,25.2
2022-12-22T04:20:24.809Z,25.2
2022-12-22T04:21:26.749Z,25.2
2022-12-22T04:22:31.353Z,25.2
2022-12-22T04:23:33.258Z,25.2
2022-12-22T04:24:35.054Z,25.2
2022-12-22T04:25:36.879Z,25.2
2022-12-22T04:26:38.719Z,25.2
2022-12-22T04:27:40.592Z,25.2
2022-12-22T04:28:42.554Z,25.2
2022-12-22T04:29:44.492Z,25.2
2022-12-22T04:30:46.292Z,25.2
2022-12-22T04:31:48.124Z,25.2
2022-12-22T04:32:50.503Z,25.2
2022-12-22T04:33:52.413Z,25.1
2022-12-22T04:34:54.264Z,25.1
2022-12-22T04:35:56.071Z,25
2022-12-22T04:37:04.529Z,25
2022-12-22T04:38:19.480Z,24.9
2022-12-22T04:39:21.246Z,24.9
2022-12-22T04:40:23.064Z,24.9
2022-12-22T04:41:24.920Z,24.9
2022-12-22T04:42:26.623Z,24.8
2022-12-22T04:43:28.519Z,24.7
2022-12-22T04:44:30.309Z,24.6
2022-12-22T04:45:32.298Z,24.6
2022-12-22T04:46:34.479Z,24.5
2022-12-22T04:47:36.331Z,24.4
2022-12-22T04:48:38.233Z,24.3
2022-12-22T04:49:40.041Z,24.3
2022-12-22T04:50:41.883Z,24.3
2022-12-22T04:51:43.934Z,24.2
2022-12-22T04:52:45.869Z,24.2
2022-12-22T04:53:47.731Z,24.1
2022-12-22T04:54:49.562Z,24.1
2022-12-22T04:55:51.425Z,24.1
2022-12-22T04:56:53.217Z,24
2022-12-22T04:57:54.920Z,24
2022-12-22T04:58:56.797Z,24
2022-12-22T04:59:58.760Z,24
2022-12-22T05:01:00.598Z,24
2022-12-22T05:02:02.779Z,24
2022-12-22T05:03:05.378Z,24
2022-12-22T05:04:07.744Z,24
2022-12-22T05:05:09.678Z,23.9
2022-12-22T05:06:11.510Z,23.9
2022-12-22T05:07:13.518Z,24
2022-12-22T05:08:15.406Z,24.1
2022-12-22T05:09:17.251Z,24.2
2022-12-22T05:10:18.894Z,24.3
2022-12-22T05:11:20.768Z,24.4
2022-12-22T05:12:22.677Z,24.4
2022-12-22T05:13:24.528Z,24.5
2022-12-22T05:14:26.369Z,24.6
2022-12-22T05:15:28.296Z,24.6
2022-12-22T05:16:30.259Z,24.6
2022-12-22T05:17:32.275Z,24.7
2022-12-22T05:18:34.270Z,24.7
2022-12-22T05:19:36.136Z,24.7
2022-12-22T05:20:37.876Z,24.8
2022-12-22T05:21:39.726Z,24.8
2022-12-22T05:22:41.817Z,24.8
2022-12-22T05:23:43.545Z,24.8
2022-12-22T05:24:45.381Z,24.8
2022-12-22T05:25:47.238Z,24.8
2022-12-22T05:26:52.015Z,24.9
2022-12-22T05:27:53.870Z,24.9
2022-12-22T05:28:55.747Z,24.9
2022-12-22T05:29:57.604Z,24.9
2022-12-22T05:30:59.555Z,24.9
2022-12-22T05:32:01.817Z,24.9
2022-12-22T05:33:03.729Z,24.9
2022-12-22T05:34:05.517Z,25
2022-12-22T05:35:07.265Z,25
2022-12-22T05:36:09.031Z,25
2022-12-22T05:37:10.967Z,25
2022-12-22T05:38:12.850Z,25
2022-12-22T05:39:14.696Z,25
2022-12-22T05:40:16.601Z,25
2022-12-22T05:41:18.387Z,25
2022-12-22T05:42:20.223Z,25
2022-12-22T05:43:22.106Z,25
2022-12-22T05:44:24.028Z,25
2022-12-22T05:45:25.860Z,25
2022-12-22T05:46:27.879Z,25
2022-12-22T05:47:29.996Z,24.9
2022-12-22T05:48:37.305Z,24.8
2022-12-22T05:49:41.995Z,24.8
2022-12-22T05:50:43.656Z,24.8
2022-12-22T05:51:45.592Z,24.7
2022-12-22T05:52:47.437Z,24.7
2022-12-22T05:53:49.188Z,24.7
2022-12-22T05:54:51.144Z,24.7
2022-12-22T05:55:52.902Z,24.8
2022-12-22T05:56:54.602Z,24.8
2022-12-22T05:57:56.465Z,24.8
2022-12-22T05:58:58.111Z,24.8
2022-12-22T05:59:59.856Z,24.8
2022-12-22T06:01:01.588Z,24.8
2022-12-22T06:02:03.717Z,24.8
2022-12-22T06:03:06.142Z,24.8
2022-12-22T06:04:08.497Z,24.9
2022-12-22T06:05:10.947Z,24.9
2022-12-22T06:06:12.806Z,24.9
2022-12-22T06:07:14.633Z,24.9
2022-12-22T06:08:16.498Z,24.9
2022-12-22T06:09:18.344Z,24.9
2022-12-22T06:10:20.255Z,24.9
2022-12-22T06:11:22.216Z,24.9
2022-12-22T06:12:24.102Z,24.9
2022-12-22T06:13:25.898Z,24.9
2022-12-22T06:14:27.570Z,24.9
2022-12-22T06:15:29.434Z,24.9
2022-12-22T06:16:31.403Z,25
2022-12-22T06:17:35.726Z,25
2022-12-22T06:18:46.919Z,25
2022-12-22T06:19:48.613Z,25
2022-12-22T06:20:50.226Z,25
2022-12-22T06:21:51.834Z,25
2022-12-22T06:22:53.561Z,24.9
2022-12-22T06:23:55.408Z,24.9
2022-12-22T06:24:57.033Z,24.9
2022-12-22T06:25:58.679Z,24.8
2022-12-22T06:27:00.465Z,24.8
2022-12-22T06:28:02.555Z,24.8
2022-12-22T06:29:04.530Z,24.7
2022-12-22T06:30:06.295Z,24.8
2022-12-22T06:31:08.074Z,24.8
2022-12-22T06:32:10.035Z,24.8
2022-12-22T06:33:11.723Z,24.9
2022-12-22T06:34:13.533Z,24.9
2022-12-22T06:35:15.523Z,25
2022-12-22T06:36:17.825Z,25.1
2022-12-22T06:37:19.515Z,25.1
2022-12-22T06:38:21.436Z,25.1
2022-12-22T06:39:23.057Z,25.1
2022-12-22T06:40:24.786Z,25.2
2022-12-22T06:41:26.709Z,25.2
2022-12-22T06:42:28.511Z,25.3
2022-12-22T06:43:30.329Z,25.3
2022-12-22T06:44:32.001Z,25.3
2022-12-22T06:45:33.853Z,25.4
2022-12-22T06:46:38.531Z,25.4
2022-12-22T06:47:40.689Z,25.5
2022-12-22T06:48:42.590Z,25.5
2022-12-22T06:49:44.285Z,25.5
2022-12-22T06:50:45.902Z,25.6
2022-12-22T06:51:47.519Z,25.6
2022-12-22T06:52:49.168Z,25.6
2022-12-22T06:53:50.868Z,25.6
2022-12-22T06:54:52.560Z,25.7
2022-12-22T06:55:54.394Z,25.7
2022-12-22T06:56:56.160Z,25.7
2022-12-22T06:57:58.003Z,25.8
2022-12-22T06:58:59.875Z,25.8
2022-12-22T07:00:01.831Z,25.8
2022-12-22T07:01:03.617Z,25.9
2022-12-22T07:02:05.434Z,25.9
2022-12-22T07:03:07.928Z,25.9
2022-12-22T07:04:11.228Z,25.9
2022-12-22T07:05:13.305Z,25.9
2022-12-22T07:06:15.150Z,25.9
2022-12-22T07:07:17.263Z,25.9
2022-12-22T07:08:19.161Z,25.9
2022-12-22T07:09:20.946Z,25.9
2022-12-22T07:10:22.847Z,25.9
2022-12-22T07:11:24.599Z,25.9
2022-12-22T07:12:26.561Z,25.9
2022-12-22T07:13:28.405Z,25.9
2022-12-22T07:14:30.261Z,25.9
2022-12-22T07:15:32.099Z,25.9
2022-12-22T07:16:34.571Z,26
2022-12-22T07:17:36.744Z,26
2022-12-22T07:18:38.617Z,26
2022-12-22T07:19:40.532Z,26
2022-12-22T07:20:42.353Z,26
2022-12-22T07:21:44.021Z,26
2022-12-22T07:22:45.912Z,26
2022-12-22T07:23:47.557Z,26
2022-12-22T07:24:49.289Z,26
2022-12-22T07:25:51.131Z,26
2022-12-22T07:26:52.985Z,26
2022-12-22T07:27:54.954Z,26
2022-12-22T07:28:56.843Z,26
2022-12-22T07:29:58.743Z,26
2022-12-22T07:31:00.537Z,26
2022-12-22T07:32:02.398Z,26
2022-12-22T07:33:04.069Z,26
2022-12-22T07:34:05.782Z,26
2022-12-22T07:35:07.570Z,26
2022-12-22T07:36:09.265Z,26
2022-12-22T07:37:11.001Z,26
2022-12-22T07:38:12.937Z,26
2022-12-22T07:39:15.223Z,26
2022-12-22T07:40:16.870Z,26
2022-12-22T07:41:18.563Z,26
2022-12-22T07:42:20.421Z,26
2022-12-22T07:43:22.087Z,26
2022-12-22T07:44:23.951Z,26
2022-12-22T07:45:25.547Z,26
2022-12-22T07:46:27.467Z,26.1
2022-12-22T07:47:34.912Z,26.1
2022-12-22T07:48:37.522Z,26.1
2022-12-22T07:49:39.319Z,26.1
2022-12-22T07:50:40.950Z,26.1
2022-12-22T07:51:43.371Z,26
2022-12-22T07:52:45.375Z,26
2022-12-22T07:53:47.093Z,26
2022-12-22T07:54:48.704Z,26
2022-12-22T07:55:50.385Z,26
2022-12-22T07:56:52.015Z,26
2022-12-22T07:57:53.727Z,26.1
2022-12-22T07:58:55.418Z,26.1
2022-12-22T07:59:57.141Z,26.1
2022-12-22T08:00:58.846Z,26.1
2022-12-22T08:02:00.669Z,26.1
2022-12-22T08:03:03.158Z,26.1
2022-12-22T08:04:05.854Z,26.2
2022-12-22T08:05:07.607Z,26.2
2022-12-22T08:06:09.904Z,26.2
2022-12-22T08:07:11.519Z,26.2
2022-12-22T08:08:13.137Z,26.2
2022-12-22T08:09:14.904Z,26.2
2022-12-22T08:10:16.747Z,26.2
2022-12-22T08:11:18.711Z,26.2
2022-12-22T08:12:23.589Z,26.2
2022-12-22T08:13:25.357Z,26.2
2022-12-22T08:14:27.614Z,26.2
2022-12-22T08:15:29.838Z,26.2
2022-12-22T08:16:32.333Z,26.2
2022-12-22T08:17:35.237Z,26.2
2022-12-22T08:18:36.956Z,26.2
2022-12-22T08:19:38.832Z,26.3
2022-12-22T08:20:40.502Z,26.3
2022-12-22T08:21:45.371Z,26.3
2022-12-22T08:22:55.002Z,26.3
2022-12-22T08:23:56.638Z,26.3
2022-12-22T08:24:58.264Z,26.3
2022-12-22T08:25:59.878Z,26.3
2022-12-22T08:27:01.552Z,26.3
2022-12-22T08:28:03.200Z,26.4
2022-12-22T08:29:04.810Z,26.3
2022-12-22T08:30:06.476Z,26.3
2022-12-22T08:31:08.265Z,26.3
2022-12-22T08:32:10.233Z,26.3
2022-12-22T08:33:12.476Z,26.3
2022-12-22T08:34:14.258Z,26.3
2022-12-22T08:35:15.961Z,26.3
2022-12-22T08:36:17.655Z,26.3
2022-12-22T08:37:19.248Z,26.3
2022-12-22T08:38:20.932Z,26.3
2022-12-22T08:39:22.718Z,26.4
2022-12-22T08:40:24.498Z,26.4
2022-12-22T08:41:26.723Z,26.3
2022-12-22T08:42:28.864Z,26.3
2022-12-22T08:43:30.507Z,26.3
2022-12-22T08:44:32.156Z,26.3
2022-12-22T08:45:34.181Z,26.3
2022-12-22T08:46:36.134Z,26.3
2022-12-22T08:47:38.346Z,26.3
2022-12-22T08:48:40.222Z,26.3
2022-12-22T08:49:41.866Z,26.3
2022-12-22T08:50:43.543Z,26.3
2022-12-22T08:51:45.179Z,26.3
2022-12-22T08:52:46.863Z,26.3
2022-12-22T08:54:07.209Z,26.3
2022-12-22T08:55:09.008Z,26.3
2022-12-22T08:56:10.885Z,26.3
2022-12-22T08:57:12.517Z,26.3
2022-12-22T08:58:14.310Z,26.3
2022-12-22T08:59:16.122Z,26.3
2022-12-22T09:00:18.060Z,26.3
2022-12-22T09:01:20.014Z,26.4
2022-12-22T09:02:22.453Z,26.3
2022-12-22T09:03:25.162Z,26.3
2022-12-22T09:04:27.533Z,26.4
2022-12-22T09:05:29.418Z,26.4
2022-12-22T09:06:36.500Z,26.3
2022-12-22T09:07:43.069Z,26.3
2022-12-22T09:08:44.673Z,26.4
2022-12-22T09:09:46.446Z,26.3
2022-12-22T09:10:48.409Z,26.3
2022-12-22T09:11:50.333Z,26.3
2022-12-22T09:12:52.019Z,26.3
2022-12-22T09:13:53.782Z,26.3
2022-12-22T09:14:55.776Z,26.3
2022-12-22T09:15:57.608Z,26.3
2022-12-22T09:16:59.608Z,26.3
2022-12-22T09:18:01.969Z,26.3
2022-12-22T09:19:03.903Z,26.3
2022-12-22T09:20:05.826Z,26.3
2022-12-22T09:21:07.644Z,26.3
2022-12-22T09:22:09.484Z,26.3
2022-12-22T09:23:11.397Z,26.2
2022-12-22T09:24:13.232Z,26.2
2022-12-22T09:25:14.889Z,26.2
2022-12-22T09:26:16.582Z,26.2
2022-12-22T09:27:18.470Z,26.2
2022-12-22T09:28:20.304Z,26.2
2022-12-22T09:29:21.951Z,26.2
2022-12-22T09:30:23.609Z,26.2
2022-12-22T09:31:25.276Z,26.2
2022-12-22T09:32:27.331Z,26.2
2022-12-22T09:33:29.035Z,26.2
2022-12-22T09:34:30.858Z,26.2
2022-12-22T09:35:32.535Z,26.2
2022-12-22T09:36:34.418Z,26.2
2022-12-22T09:37:39.450Z,26.2
2022-12-22T09:38:41.299Z,26.2
2022-12-22T09:39:43.177Z,26.2
2022-12-22T09:40:44.982Z,26.3
2022-12-22T09:41:46.598Z,26.2
2022-12-22T09:42:48.250Z,26.2
2022-12-22T09:43:49.924Z,26.3
2022-12-22T09:44:51.669Z,26.3
2022-12-22T09:45:53.641Z,26.3
2022-12-22T09:46:55.776Z,26.3
2022-12-22T09:47:57.445Z,26.3
2022-12-22T09:48:59.448Z,26.3
2022-12-22T09:50:01.350Z,26.3
2022-12-22T09:51:03.180Z,26.3
2022-12-22T09:52:04.922Z,26.3
2022-12-22T09:53:06.801Z,26.3
2022-12-22T09:54:08.667Z,26.2
2022-12-22T09:55:10.578Z,26.2
2022-12-22T09:56:12.321Z,26.2
2022-12-22T09:57:14.257Z,26.2
2022-12-22T09:58:19.492Z,26.3
2022-12-22T09:59:28.459Z,26.3
2022-12-22T10:00:30.373Z,26.3
2022-12-22T10:01:32.340Z,26.3
2022-12-22T10:02:35.140Z,26.3
2022-12-22T10:03:37.353Z,26.3
2022-12-22T10:04:39.654Z,26.3
2022-12-22T10:05:41.568Z,26.3
2022-12-22T10:06:43.412Z,26.3
2022-12-22T10:07:45.158Z,26.3
2022-12-22T10:08:46.981Z,26.3
2022-12-22T10:09:51.006Z,26.2
2022-12-22T10:10:54.007Z,26.3
2022-12-22T10:11:55.612Z,26.3
2022-12-22T10:12:57.559Z,26.3
2022-12-22T10:13:59.553Z,26.3
2022-12-22T10:15:01.491Z,26.2
2022-12-22T10:16:03.364Z,26.2
2022-12-22T10:17:05.515Z,26.2
2022-12-22T10:18:07.443Z,26.2
2022-12-22T10:19:10.548Z,26.2
2022-12-22T10:20:14.396Z,26.3
2022-12-22T10:21:16.085Z,26.3
2022-12-22T10:22:17.911Z,26.3
2022-12-22T10:23:19.740Z,26.3
2022-12-22T10:24:21.528Z,26.3
2022-12-22T10:25:23.404Z,26.3
2022-12-22T10:26:28.396Z,26.3
2022-12-22T10:27:33.583Z,26.3
2022-12-22T10:28:48.049Z,26.3
2022-12-22T10:29:49.988Z,26.3
2022-12-22T10:30:51.674Z,26.3
2022-12-22T10:31:53.503Z,26.3
2022-12-22T10:32:55.474Z,26.3
2022-12-22T10:33:57.329Z,26.3
2022-12-22T10:34:59.253Z,26.3
2022-12-22T10:36:00.891Z,26.3
2022-12-22T10:37:02.691Z,26.3
2022-12-22T10:38:04.619Z,26.3
2022-12-22T10:39:24.099Z,26.3
2022-12-22T10:40:26.028Z,26.3
2022-12-22T10:41:27.882Z,26.3
2022-12-22T10:42:29.827Z,26.3
2022-12-22T10:43:31.697Z,26.3
2022-12-22T10:44:33.602Z,26.3
2022-12-22T10:45:35.410Z,26.3
2022-12-22T10:46:37.573Z,26.3
2022-12-22T10:47:39.798Z,26.3
2022-12-22T10:48:41.550Z,26.3
2022-12-22T10:50:44.859Z,26.3
2022-12-22T10:51:46.598Z,26.3
2022-12-22T10:52:48.518Z,26.3
2022-12-22T10:53:50.494Z,26.3
2022-12-22T10:54:52.387Z,26.3
2022-12-22T10:55:54.196Z,26.3
2022-12-22T10:56:55.878Z,26.3
2022-12-22T10:58:01.871Z,26.3
2022-12-22T10:59:07.329Z,26.3
2022-12-22T11:00:09.064Z,26.3
2022-12-22T11:01:10.859Z,26.3
2022-12-22T11:02:13.155Z,26.3
2022-12-22T11:03:20.686Z,26.3
2022-12-22T11:04:26.854Z,26.3
2022-12-22T11:05:28.693Z,26.3
2022-12-22T11:06:30.445Z,26.3
2022-12-22T11:07:32.212Z,26.3
2022-12-22T11:08:33.835Z,26.4
2022-12-22T11:09:35.913Z,26.4
2022-12-22T11:10:37.763Z,26.3
2022-12-22T11:11:39.583Z,26.3
2022-12-22T11:12:41.409Z,26.4
2022-12-22T11:13:43.148Z,26.3
2022-12-22T11:14:44.839Z,26.4
2022-12-22T11:15:46.697Z,26.4
2022-12-22T11:16:48.616Z,26.4
2022-12-22T11:17:50.380Z,26.4
2022-12-22T11:18:52.160Z,26.3
2022-12-22T11:19:54.065Z,26.4
2022-12-22T11:20:55.900Z,26.4
2022-12-22T11:21:57.557Z,26.3
2022-12-22T11:22:59.221Z,26.3
2022-12-22T11:24:00.947Z,26.3
2022-12-22T11:25:03.001Z,26.3
2022-12-22T11:26:04.601Z,26.4
2022-12-22T11:27:06.253Z,26.4
2022-12-22T11:28:07.942Z,26.4
2022-12-22T11:29:12.290Z,26.4
2022-12-22T11:30:13.988Z,26.4
2022-12-22T11:31:18.911Z,26.4
2022-12-22T11:32:21.149Z,26.4
2022-12-22T11:33:22.793Z,26.4
2022-12-22T11:34:24.555Z,26.4
2022-12-22T11:35:26.221Z,26.4
2022-12-22T11:36:29.747Z,26.4
2022-12-22T11:37:31.583Z,26.4
2022-12-22T11:38:33.444Z,26.4
2022-12-22T11:39:35.107Z,26.4
2022-12-22T11:40:36.856Z,26.4
2022-12-22T11:41:38.582Z,26.4
2022-12-22T11:42:40.255Z,26.4
2022-12-22T11:43:42.217Z,26.4
2022-12-22T11:44:43.876Z,26.4
2022-12-22T11:45:45.700Z,26.4
2022-12-22T11:46:47.660Z,26.4
2022-12-22T11:47:49.756Z,26.4
2022-12-22T11:48:51.398Z,26.4
2022-12-22T11:49:53.063Z,26.4
2022-12-22T11:52:03.293Z,26.5
2022-12-22T11:53:10.091Z,26.5
2022-12-22T11:54:12.210Z,26.4
2022-12-22T11:55:14.055Z,26.4
2022-12-22T11:56:15.794Z,26.5
2022-12-22T11:57:17.643Z,26.5
2022-12-22T11:58:19.409Z,26.5
2022-12-22T11:59:21.161Z,26.5
2022-12-22T12:00:28.437Z,26.5
2022-12-22T12:02:26.944Z,26.5
2022-12-22T12:03:29.777Z,26.5
2022-12-22T12:04:32.169Z,26.5
2022-12-22T12:05:34.368Z,26.5
2022-12-22T12:06:38.692Z,26.5
2022-12-22T12:07:40.544Z,26.5
2022-12-22T12:08:42.563Z,26.5
2022-12-22T12:09:44.295Z,26.5
2022-12-22T12:10:48.450Z,26.5
2022-12-22T12:11:50.297Z,26.5
2022-12-22T12:12:52.069Z,26.5
